Flight Track Log - Related Links

Times and Time Zones

All times are in EDT time to prevent confusion due to time zone crossing. See the DAL1803 flight status page for this flight to view local times or setup timezone preferences in your user account.

Time Position Orientation Groundspeed Altitude Reporting Facility
EDT Latitude Longitude Course Direction KTS MPH feet Rate Location/Type
Thu 01:36:27 PM 35.8989 -78.7717 258° West 190 219 1,400  Level Washington Center
Thu 01:37:27 PM 35.9500 -78.7353 30° Northeast 236 272 3,000 2,273 Climbing Washington Center
Thu 01:38:39 PM 36.0225 -78.7558 347° North 283 326 6,400 2,887 Climbing Washington Center
Thu 01:39:00 PM 35.7379 -79.1692 262° West  Level Estimated
Thu 01:39:40 PM 36.0494 -78.8419 291° West 283 326 9,400  Level Washington Center
Thu 01:40:00 PM 35.6911 -79.2961 270° West  Level Estimated
Thu 01:40:41 PM 36.0050 -78.9350 239° Southwest 254 292 11,200  Level Washington Center
Thu 01:41:00 PM 35.6441 -79.4229 258° West  Level Estimated
Thu 01:41:41 PM 35.9539 -79.0458 240° Southwest 306 352 12,700  Level Washington Center
Thu 01:42:42 PM 35.8942 -79.1636 238° Southwest 375 432 15,300 2,593 Climbing Washington Center
Thu 01:43:39 PM 35.8378 -79.2994 243° Southwest 407 468 17,800 2,414 Climbing Washington Center
Thu 01:45:31 PM 35.8100 -79.5653 263° West 400 460 22,100 2,058 Climbing Atlanta Center
Thu 01:46:31 PM 35.7853 -79.6947 257° West 406 467 23,700 1,400 Climbing Atlanta Center
Thu 01:47:31 PM 35.7647 -79.8236 259° West 411 473 24,900 1,150 Climbing Atlanta Center
Thu 01:48:31 PM 35.7406 -79.9683 258° West 422 486 26,000 1,350 Climbing Atlanta Center
Thu 01:49:31 PM 35.7036 -80.1183 253° West 442 509 27,600 1,000 Climbing Atlanta Center
Thu 01:50:31 PM 35.6564 -80.2792 250° West 447 514 28,000 200 Climbing Atlanta Center
Thu 01:51:31 PM 35.6128 -80.4192 249° West 447 514 28,000  Level Atlanta Center
Thu 01:52:31 PM 35.5747 -80.5458 250° West 447 514 28,000  Level Atlanta Center
Thu 01:53:31 PM 35.5306 -80.6881 249° West 453 521 28,000  Level Atlanta Center
Thu 01:54:31 PM 35.4864 -80.8303 249° West 453 521 28,000  Level Atlanta Center
Thu 01:55:31 PM 35.4442 -80.9719 250° West 453 521 28,000  Level Atlanta Center
Thu 01:56:31 PM 35.3936 -81.1267 248° West 453 521 28,000  Level Atlanta Center
Thu 01:57:31 PM 35.3511 -81.2658 250° West 453 521 28,000  Level Atlanta Center
Thu 01:58:31 PM 35.3083 -81.4072 250° West 453 521 28,000  Level Atlanta Center
Thu 01:59:31 PM 35.2653 -81.5433 249° West 453 521 28,000  Level Atlanta Center
Thu 02:00:31 PM 35.2219 -81.6844 249° West 447 514 28,000  Level Atlanta Center
Thu 02:01:31 PM 35.1786 -81.8231 249° West 442 509 28,000  Level Atlanta Center
Thu 02:02:31 PM 35.1411 -81.9433 249° West 437 503 28,000  Level Atlanta Center
Thu 02:03:31 PM 35.0956 -82.0792 248° West 437 503 28,000  Level Atlanta Center
Thu 02:04:31 PM 35.0497 -82.2172 248° West 437 503 28,000  Level Atlanta Center
Thu 02:05:31 PM 35.0039 -82.3678 250° West 437 503 28,000  Level Atlanta Center
Thu 02:06:31 PM 34.9575 -82.5031 247° West 437 503 28,000  Level Atlanta Center
Thu 02:07:31 PM 34.9133 -82.6381 248° West 437 503 28,000  Level Atlanta Center
Thu 02:08:31 PM 34.8689 -82.7756 249° West 437 503 28,000  Level Atlanta Center
Thu 02:09:31 PM 34.8264 -82.9053 248° West 437 503 28,000 -200 Level Atlanta Center
Thu 02:10:31 PM 34.7753 -83.0400 245° Southwest 437 503 27,600 -1,750 Descending Atlanta Center
Thu 02:11:31 PM 34.6925 -83.1494 227° Southwest 447 514 24,500 -2,550 Descending Atlanta Center
Thu 02:12:31 PM 34.6056 -83.2539 225° Southwest 441 507 22,500 -1,250 Descending Atlanta Center
Thu 02:13:31 PM 34.5144 -83.3531 222° Southwest 441 507 22,000 -250 Descending Atlanta Center
Thu 02:14:31 PM 34.4253 -83.4569 224° Southwest 446 513 22,000 -450 Level Atlanta Center
Thu 02:15:31 PM 34.3442 -83.5481 223° Southwest 446 513 21,100 -1,650 Descending Atlanta Center
Thu 02:16:31 PM 34.2592 -83.6442 223° Southwest 436 502 18,700 -2,450 Descending Atlanta Center
Thu 02:17:31 PM 34.1781 -83.7400 224° Southwest 423 487 16,200 -2,350 Descending Atlanta Center
Thu 02:18:31 PM 34.0947 -83.8306 222° Southwest 413 475 14,000 -1,806 Descending Atlanta Center
Thu 02:19:04 PM 34.0333 -83.9000 223° Southwest 397 457 13,400 -903 Descending Atlanta TRACON
Thu 02:20:04 PM 33.9500 -83.9833 220° Southwest 391 450 12,600 -750 Descending Atlanta TRACON
Thu 02:21:04 PM 33.8667 -84.0500 214° Southwest 387 445 11,900 -300 Descending Atlanta TRACON
Thu 02:22:04 PM 33.8167 -84.1333 234° Southwest 319 367 12,000 50 Climbing Atlanta TRACON
Thu 02:23:04 PM 33.7667 -84.2333 239° Southwest 308 354 12,000 -200 Level Atlanta TRACON
Thu 02:24:04 PM 33.7333 -84.3167 244° Southwest 302 348 11,600 -1,050 Descending Atlanta TRACON
Thu 02:25:04 PM 33.7333 -84.4167 270° West 301 346 9,900 -1,600 Descending Atlanta TRACON
Thu 02:26:04 PM 33.7333 -84.5167 270° West 288 331 8,400 -1,550 Descending Atlanta TRACON
Thu 02:27:04 PM 33.7333 -84.6000 270° West 278 320 6,800 -1,500 Descending Atlanta TRACON
Thu 02:28:04 PM 33.7333 -84.7000 270° West 270 311 5,400 -900 Descending Atlanta TRACON
Thu 02:29:04 PM 33.7333 -84.7833 270° West 231 266 5,000 -200 Descending Atlanta TRACON
Thu 02:30:04 PM 33.7000 -84.8167 220° Southwest 212 244 5,000 -500 Level Atlanta TRACON
Thu 02:31:04 PM 33.6500 -84.7833 151° Southeast 187 215 4,000 -500 Descending Atlanta TRACON
Thu 02:32:04 PM 33.6500 -84.7333 90° East 167 192 4,000  Level Atlanta TRACON
Thu 02:33:04 PM 33.6500 -84.6833 90° East 167 192 4,000 -50 Level Atlanta TRACON
Thu 02:34:04 PM 33.6500 -84.6167 90° East 168 193 3,900 -500 Descending Atlanta TRACON
Thu 02:35:04 PM 33.6500 -84.5667 90° East 173 199 3,000 -800 Descending Atlanta TRACON
Thu 02:36:04 PM 33.6500 -84.5167 90° East 150 173 2,300 -750 Descending Atlanta TRACON
Thu 02:37:04 PM 33.6500 -84.4667 90° East 147 169 1,500 -800 Descending Atlanta TRACON

Login

Don't have an account? Register now (free) for customized features, flight alerts, and more!